createdAt,value
2022-08-31T00:31:36.230Z,0
2022-08-31T00:32:16.739Z,0
2022-08-31T00:32:58.419Z,0
2022-08-31T00:33:37.773Z,0
2022-08-31T00:34:18.261Z,0
2022-08-31T00:34:58.641Z,0
2022-08-31T00:35:39.130Z,0
2022-08-31T00:36:19.606Z,0
2022-08-31T00:37:00.092Z,0
2022-08-31T00:37:40.604Z,0
2022-08-31T00:38:21.065Z,0
2022-08-31T00:45:05.993Z,0
2022-08-31T00:45:46.527Z,0
2022-08-31T00:46:26.949Z,0
2022-08-31T00:47:07.403Z,0
2022-08-31T00:47:47.904Z,0
2022-08-31T00:48:28.431Z,0
2022-08-31T00:49:08.880Z,0
2022-08-31T00:49:49.334Z,0
2022-08-31T00:50:29.806Z,0
2022-08-31T00:51:10.342Z,0
2022-08-31T00:51:50.809Z,0
2022-08-31T00:59:16.106Z,0
2022-08-31T00:59:56.652Z,0
2022-08-31T01:00:37.203Z,0
2022-08-31T01:01:17.699Z,0
2022-08-31T01:01:58.198Z,0
2022-08-31T01:02:38.631Z,0
2022-08-31T01:03:19.336Z,0
2022-08-31T01:03:59.571Z,0
2022-08-31T01:04:40.015Z,0
2022-08-31T01:05:20.487Z,0
2022-08-31T01:06:00.991Z,0
2022-08-31T01:12:45.854Z,0
2022-08-31T01:13:26.349Z,0
2022-08-31T01:14:47.355Z,0
2022-08-31T01:15:27.779Z,0
2022-08-31T01:16:08.314Z,0
2022-08-31T01:16:48.808Z,0
2022-08-31T01:17:29.236Z,0
2022-08-31T01:18:09.722Z,0
2022-08-31T01:18:50.322Z,0
2022-08-31T01:19:30.767Z,0
2022-08-31T01:26:56.127Z,0
2022-08-31T01:27:36.618Z,0
2022-08-31T01:28:17.114Z,0
2022-08-31T01:28:57.647Z,0
2022-08-31T01:29:38.124Z,0
2022-08-31T01:30:18.621Z,0
2022-08-31T01:30:59.134Z,0
2022-08-31T01:31:39.617Z,0
2022-08-31T01:32:20.077Z,0
2022-08-31T01:33:00.547Z,0
2022-08-31T01:33:41.055Z,0
2022-08-31T01:40:25.981Z,0
2022-08-31T01:41:06.405Z,0
2022-08-31T01:41:46.902Z,0
2022-08-31T01:42:30.893Z,0
2022-08-31T01:43:07.886Z,0
2022-08-31T01:43:48.358Z,0
2022-08-31T01:45:09.375Z,0
2022-08-31T01:45:49.882Z,0
2022-08-31T01:46:30.340Z,0
2022-08-31T01:47:10.895Z,0
2022-08-31T01:54:36.105Z,0
2022-08-31T01:55:17.303Z,0
2022-08-31T01:55:57.809Z,0
2022-08-31T01:56:38.287Z,0
2022-08-31T01:57:18.762Z,0
2022-08-31T01:57:59.229Z,0
2022-08-31T01:58:39.708Z,0
2022-08-31T01:59:20.190Z,0
2022-08-31T02:00:00.753Z,0
2022-08-31T02:00:41.243Z,0
2022-08-31T02:07:56.078Z,0
2022-08-31T02:08:37.021Z,0
2022-08-31T02:09:18.017Z,0
2022-08-31T02:09:59.023Z,0
2022-08-31T02:10:40.012Z,0
2022-08-31T02:11:20.983Z,0
2022-08-31T02:14:46.095Z,0
2022-08-31T02:15:27.011Z,0
2022-08-31T02:16:08.022Z,0
2022-08-31T02:16:48.967Z,0
2022-08-31T02:17:30.005Z,0
2022-08-31T02:18:12.058Z,0
2022-08-31T02:21:36.843Z,0
2022-08-31T02:22:16.971Z,0
2022-08-31T02:22:57.934Z,0
2022-08-31T02:23:38.957Z,0
2022-08-31T02:24:19.891Z,0
2022-08-31T02:25:00.859Z,0
2022-08-31T02:28:25.819Z,0
2022-08-31T02:29:06.770Z,0
2022-08-31T02:29:47.737Z,0
2022-08-31T02:30:28.705Z,0
2022-08-31T02:31:09.825Z,0
2022-08-31T02:31:50.832Z,0
2022-08-31T02:35:15.726Z,0
2022-08-31T02:35:56.684Z,0
2022-08-31T02:36:37.706Z,0
2022-08-31T02:37:18.674Z,0
2022-08-31T02:37:59.696Z,0
2022-08-31T02:38:40.679Z,0
2022-08-31T02:42:05.684Z,0
2022-08-31T02:42:52.657Z,0
2022-08-31T02:43:27.697Z,0
2022-08-31T02:44:08.621Z,0
2022-08-31T02:44:49.595Z,0
2022-08-31T02:45:30.560Z,0
2022-08-31T02:48:55.515Z,0
2022-08-31T02:49:36.488Z,0
2022-08-31T02:50:17.421Z,0
2022-08-31T02:50:58.429Z,0
2022-08-31T02:51:39.427Z,0
2022-08-31T02:52:20.400Z,0
2022-08-31T02:55:45.416Z,0
2022-08-31T02:56:26.374Z,0
2022-08-31T02:57:07.363Z,0
2022-08-31T02:57:48.392Z,0
2022-08-31T02:58:29.378Z,0
2022-08-31T02:59:10.396Z,0
2022-08-31T03:03:16.201Z,0
2022-08-31T03:03:57.158Z,0
2022-08-31T03:04:38.183Z,0
2022-08-31T03:05:19.157Z,0
2022-08-31T03:06:00.148Z,0
2022-08-31T03:06:41.078Z,0
2022-08-31T03:10:06.046Z,0
2022-08-31T03:10:46.937Z,0
2022-08-31T03:11:27.930Z,0
2022-08-31T03:12:08.942Z,0
2022-08-31T03:12:49.864Z,0
2022-08-31T03:13:30.876Z,0
2022-08-31T03:16:55.803Z,0
2022-08-31T03:17:36.780Z,0
2022-08-31T03:18:17.750Z,0
2022-08-31T03:18:58.723Z,0
2022-08-31T03:19:39.738Z,0
2022-08-31T03:20:20.767Z,0
2022-08-31T03:23:45.787Z,0
2022-08-31T03:24:27.164Z,0
2022-08-31T03:25:07.757Z,0
2022-08-31T03:25:48.719Z,0
2022-08-31T03:26:29.670Z,0
2022-08-31T03:30:35.484Z,0
2022-08-31T03:31:16.556Z,0
2022-08-31T03:31:57.442Z,0
2022-08-31T03:32:38.421Z,0
2022-08-31T03:33:19.464Z,0
2022-08-31T03:34:00.403Z,0
2022-08-31T03:38:06.350Z,0
2022-08-31T03:38:47.342Z,0
2022-08-31T03:39:28.238Z,0
2022-08-31T03:40:09.291Z,0
2022-08-31T03:40:50.245Z,0
2022-08-31T03:44:56.052Z,0
2022-08-31T03:45:37.093Z,0
2022-08-31T03:46:18.049Z,0
2022-08-31T03:46:59.092Z,0
2022-08-31T03:47:40.723Z,0
2022-08-31T03:48:20.896Z,0
2022-08-31T03:53:23.223Z,0
2022-08-31T03:54:03.467Z,0
2022-08-31T03:54:44.014Z,0
2022-08-31T03:55:24.512Z,0
2022-08-31T03:56:05.003Z,0
2022-08-31T03:56:45.510Z,0
2022-08-31T03:57:26.002Z,0
2022-08-31T03:58:06.500Z,0
2022-08-31T03:58:46.984Z,0
2022-08-31T03:59:27.477Z,0
2022-08-31T04:06:53.003Z,0
2022-08-31T04:07:38.358Z,0
2022-08-31T04:08:13.929Z,0
2022-08-31T04:08:54.421Z,0
2022-08-31T04:09:34.902Z,0
2022-08-31T04:10:55.864Z,0
2022-08-31T04:11:40.515Z,0
2022-08-31T04:12:16.824Z,0
2022-08-31T04:12:57.498Z,0
2022-08-31T04:13:37.943Z,0
2022-08-31T04:19:02.889Z,0
2022-08-31T04:19:43.416Z,0
2022-08-31T04:20:24.430Z,0
2022-08-31T04:21:04.460Z,0
2022-08-31T04:21:44.921Z,0
2022-08-31T04:22:25.416Z,0
2022-08-31T04:23:46.943Z,0
2022-08-31T04:24:27.440Z,0
2022-08-31T04:25:07.920Z,0
2022-08-31T04:32:33.198Z,0
2022-08-31T04:33:13.809Z,0
2022-08-31T04:33:54.241Z,0
2022-08-31T04:34:34.732Z,4
2022-08-31T04:35:15.173Z,4
2022-08-31T04:35:55.650Z,4
2022-08-31T04:36:36.198Z,4
2022-08-31T04:37:16.659Z,4
2022-08-31T04:37:57.196Z,4
2022-08-31T04:38:37.643Z,4
2022-08-31T04:46:02.960Z,4
2022-08-31T04:46:43.432Z,4
2022-08-31T04:47:23.938Z,8
2022-08-31T04:48:04.532Z,8
2022-08-31T04:51:38.546Z,8
2022-08-31T04:52:19.033Z,8
2022-08-31T04:53:03.227Z,8
2022-08-31T04:53:40.011Z,12
2022-08-31T04:54:20.530Z,12
2022-08-31T04:55:00.911Z,8
2022-08-31T04:55:41.413Z,8
2022-08-31T04:56:21.939Z,8
2022-08-31T04:57:02.347Z,12
2022-08-31T04:57:42.791Z,12
2022-08-31T05:05:08.258Z,20
2022-08-31T05:05:48.676Z,20
2022-08-31T05:06:29.159Z,20
2022-08-31T05:07:09.677Z,24
2022-08-31T05:07:50.181Z,24
2022-08-31T05:09:11.114Z,28
2022-08-31T05:09:51.598Z,28
2022-08-31T05:10:32.076Z,32
2022-08-31T05:11:12.577Z,32
2022-08-31T05:11:53.036Z,36
2022-08-31T05:18:38.252Z,60
2022-08-31T05:19:18.679Z,60
2022-08-31T05:20:00.143Z,68
2022-08-31T05:20:40.655Z,68
2022-08-31T05:21:21.136Z,72
2022-08-31T05:22:01.598Z,76
2022-08-31T05:22:42.097Z,80
2022-08-31T05:23:22.681Z,84
2022-08-31T05:24:03.179Z,84
2022-08-31T05:30:48.210Z,120
2022-08-31T05:31:28.744Z,124
2022-08-31T05:32:09.175Z,128
2022-08-31T05:32:49.650Z,132
2022-08-31T05:33:30.207Z,136
2022-08-31T05:34:10.696Z,136
2022-08-31T05:34:51.198Z,136
2022-08-31T05:35:31.658Z,136
2022-08-31T05:36:12.134Z,144
2022-08-31T05:36:52.609Z,144
2022-08-31T05:37:33.339Z,148
2022-08-31T05:44:18.227Z,156
2022-08-31T05:44:58.743Z,156
2022-08-31T05:45:39.146Z,156
2022-08-31T05:46:19.816Z,156
2022-08-31T05:47:03.729Z,152
2022-08-31T05:47:40.851Z,156
2022-08-31T05:48:21.355Z,156
2022-08-31T05:49:02.567Z,156
2022-08-31T05:49:43.107Z,160
2022-08-31T06:32:25.946Z,424
2022-08-31T06:33:06.645Z,428
2022-08-31T06:33:47.328Z,432
2022-08-31T06:34:27.767Z,436
2022-08-31T06:35:08.423Z,436
2022-08-31T06:35:49.267Z,440
2022-08-31T06:36:29.838Z,436
2022-08-31T06:37:10.816Z,440
2022-08-31T06:37:51.022Z,440
2022-08-31T06:43:55.805Z,416
2022-08-31T06:45:17.566Z,420
2022-08-31T06:45:58.248Z,420
2022-08-31T06:46:38.672Z,424
2022-08-31T06:47:23.417Z,432
2022-08-31T06:47:59.649Z,440
2022-08-31T06:48:40.228Z,448
2022-08-31T06:49:20.691Z,456
2022-08-31T06:54:21.718Z,520
2022-08-31T06:54:47.121Z,520
2022-08-31T06:55:27.624Z,524
2022-08-31T06:56:16.550Z,528
2022-08-31T06:56:48.673Z,528
2022-08-31T06:57:29.281Z,532
2022-08-31T06:58:09.977Z,536
2022-08-31T06:58:50.913Z,536
2022-08-31T07:04:16.100Z,600
2022-08-31T07:04:56.594Z,608
2022-08-31T07:05:37.120Z,608
2022-08-31T07:06:18.154Z,608
2022-08-31T07:06:58.657Z,600
2022-08-31T07:07:39.362Z,596
2022-08-31T07:08:20.604Z,592
2022-08-31T07:09:00.361Z,596
2022-08-31T07:15:45.778Z,724
2022-08-31T07:16:26.354Z,736
2022-08-31T07:17:06.783Z,744
2022-08-31T07:17:47.279Z,748
2022-08-31T07:18:27.863Z,752
2022-08-31T07:19:08.438Z,760
2022-08-31T07:19:48.923Z,768
2022-08-31T07:20:29.435Z,784
2022-08-31T07:21:09.953Z,788
2022-08-31T07:21:50.472Z,784
2022-08-31T07:27:55.837Z,724
2022-08-31T07:28:36.333Z,720
2022-08-31T07:29:16.899Z,716
2022-08-31T07:29:57.348Z,716
2022-08-31T07:30:37.885Z,712
2022-08-31T07:31:18.522Z,712
2022-08-31T07:31:59.078Z,708
2022-08-31T07:32:39.623Z,704
2022-08-31T07:33:20.442Z,708
2022-08-31T07:34:00.809Z,708
2022-08-31T07:39:25.687Z,800
2022-08-31T07:40:07.717Z,820
2022-08-31T07:40:46.775Z,828
2022-08-31T07:41:27.271Z,836
2022-08-31T07:42:07.946Z,844
2022-08-31T07:44:21.398Z,868
2022-08-31T07:45:02.893Z,892
2022-08-31T07:45:43.484Z,908
2022-08-31T07:46:24.371Z,932
2022-08-31T07:47:05.475Z,960
2022-08-31T07:47:46.183Z,996
2022-08-31T07:49:13.208Z,1084
2022-08-31T07:49:53.991Z,1132
2022-08-31T07:50:34.816Z,1204
2022-08-31T07:54:42.618Z,1632
2022-08-31T07:55:23.164Z,1680
2022-08-31T07:56:04.006Z,1724
2022-08-31T07:56:44.596Z,1768
2022-08-31T07:57:25.740Z,1812
2022-08-31T08:00:51.513Z,2212
2022-08-31T08:01:33.917Z,2300
2022-08-31T08:02:17.145Z,2376
2022-08-31T08:02:55.119Z,2424
2022-08-31T08:03:36.677Z,2452
2022-08-31T08:07:32.010Z,2780
2022-08-31T08:08:13.718Z,2860
2022-08-31T08:09:12.897Z,2932
2022-08-31T08:09:33.606Z,2980
2022-08-31T08:13:37.663Z,3080
2022-08-31T08:14:18.088Z,3068
2022-08-31T08:14:58.667Z,3056
2022-08-31T08:15:40.231Z,3056
2022-08-31T08:16:19.961Z,3068
2022-08-31T08:17:00.368Z,3076
2022-08-31T08:17:41.112Z,3136
2022-08-31T08:18:21.477Z,3240
2022-08-31T08:19:01.998Z,3252
2022-08-31T08:19:43.516Z,3160
2022-08-31T08:24:27.284Z,2820
2022-08-31T08:25:07.811Z,2784
2022-08-31T08:25:48.522Z,2768
2022-08-31T08:26:29.127Z,2752
2022-08-31T08:27:09.654Z,2740
2022-08-31T08:27:50.324Z,2732
2022-08-31T08:28:40.023Z,2736
2022-08-31T08:29:11.694Z,2756
2022-08-31T08:29:52.283Z,2780
2022-08-31T08:35:57.699Z,2968
2022-08-31T08:36:38.186Z,2960
2022-08-31T08:37:24.012Z,2964
2022-08-31T08:38:02.259Z,2964
2022-08-31T08:38:40.001Z,2968
2022-08-31T08:39:20.754Z,2992
2022-08-31T08:40:01.912Z,3004
2022-08-31T08:40:42.457Z,2972
2022-08-31T08:46:25.510Z,2892
2022-08-31T08:46:48.277Z,2908
2022-08-31T08:49:01.296Z,3008
2022-08-31T08:49:42.122Z,3004
2022-08-31T08:50:22.977Z,3004
2022-08-31T08:51:03.716Z,3004
2022-08-31T08:51:44.266Z,3004
2022-08-31T08:52:26.115Z,3000
2022-08-31T08:56:48.463Z,2960
2022-08-31T08:57:29.511Z,2956
2022-08-31T08:58:14.768Z,2940
2022-08-31T08:59:17.274Z,2912
2022-08-31T09:00:01.230Z,2884
2022-08-31T09:00:43.428Z,2852
2022-08-31T09:01:25.119Z,2816
2022-08-31T09:02:05.958Z,2768
2022-08-31T09:02:46.580Z,2720
2022-08-31T09:03:27.114Z,2656
2022-08-31T09:04:09.094Z,2592
2022-08-31T09:06:50.087Z,2440
2022-08-31T09:12:54.222Z,2412
2022-08-31T09:13:35.608Z,2460
2022-08-31T09:14:16.743Z,2512
2022-08-31T09:14:57.710Z,2552
2022-08-31T09:15:38.416Z,2552
2022-08-31T09:16:20.107Z,2584
2022-08-31T09:19:41.887Z,2728
2022-08-31T09:20:22.863Z,2676
2022-08-31T09:21:03.629Z,2652
2022-08-31T09:21:45.165Z,2588
2022-08-31T09:22:25.467Z,2432
2022-08-31T09:23:06.643Z,2176
2022-08-31T09:27:14.388Z,1952
2022-08-31T09:30:02.763Z,1640
2022-08-31T09:30:43.772Z,1588
2022-08-31T09:31:24.620Z,1560
2022-08-31T09:32:06.411Z,1576
2022-08-31T09:32:45.837Z,1612
2022-08-31T09:33:26.391Z,1584
2022-08-31T09:34:47.676Z,1516
2022-08-31T09:40:12.557Z,1444
2022-08-31T09:40:53.231Z,1448
2022-08-31T09:41:33.681Z,1464
2022-08-31T09:42:14.217Z,1500
2022-08-31T09:42:54.828Z,1528
2022-08-31T09:43:35.478Z,1564
2022-08-31T09:44:16.052Z,1648
2022-08-31T09:44:56.719Z,1676
2022-08-31T09:45:41.357Z,1668
2022-08-31T09:53:43.143Z,2148
2022-08-31T09:54:23.744Z,2156
2022-08-31T09:55:04.401Z,2212
2022-08-31T09:58:26.566Z,2388
2022-08-31T09:59:10.770Z,2436
2022-08-31T09:59:52.778Z,2480
2022-08-31T10:00:38.188Z,2548
2022-08-31T10:01:20.181Z,2632
2022-08-31T10:02:02.507Z,2556
2022-08-31T10:02:44.736Z,2560
2022-08-31T10:03:42.003Z,2556
2022-08-31T10:04:23.910Z,2568
2022-08-31T10:06:30.915Z,2632
2022-08-31T10:07:12.980Z,2664
2022-08-31T10:07:54.276Z,2700
2022-08-31T10:13:57.677Z,2940
2022-08-31T10:14:38.260Z,2868
2022-08-31T10:15:18.893Z,2784
2022-08-31T10:15:59.441Z,2696
2022-08-31T10:16:39.913Z,2684
2022-08-31T10:18:56.811Z,2412
2022-08-31T10:19:38.054Z,2428
2022-08-31T10:20:24.466Z,2392
2022-08-31T10:21:04.115Z,2468
2022-08-31T10:23:00.577Z,2480
2022-08-31T10:23:41.783Z,2400
2022-08-31T10:24:23.656Z,2560
2022-08-31T10:25:04.795Z,2652
2022-08-31T10:27:49.322Z,2208
2022-08-31T10:28:32.827Z,2232
2022-08-31T10:31:36.008Z,2024
2022-08-31T10:32:16.364Z,1976
2022-08-31T10:32:58.073Z,1924
2022-08-31T10:33:38.879Z,1928
2022-08-31T10:45:33.987Z,2044
2022-08-31T10:46:14.690Z,2060
2022-08-31T10:46:55.910Z,2076
2022-08-31T10:47:37.180Z,2088
2022-08-31T10:50:51.188Z,2128
2022-08-31T10:51:31.691Z,2136
2022-08-31T10:52:12.354Z,2136
2022-08-31T10:52:54.518Z,2128
2022-08-31T10:54:15.854Z,2096
2022-08-31T11:00:06.633Z,2012
2022-08-31T11:00:47.491Z,2024
2022-08-31T11:01:29.112Z,2040
2022-08-31T11:02:10.181Z,2052
2022-08-31T11:02:50.927Z,2072
2022-08-31T11:05:35.597Z,2096
2022-08-31T11:06:16.510Z,2092
2022-08-31T11:06:59.857Z,2096
2022-08-31T11:07:41.083Z,2108
2022-08-31T11:11:45.908Z,2188
2022-08-31T11:12:26.559Z,2184
2022-08-31T11:13:07.139Z,2192
2022-08-31T11:13:49.405Z,2132
2022-08-31T11:14:28.706Z,2108
2022-08-31T11:15:10.445Z,2124
2022-08-31T11:15:50.828Z,2076
2022-08-31T11:19:56.263Z,1992
2022-08-31T11:20:37.449Z,2000
2022-08-31T11:21:17.941Z,2008
2022-08-31T11:21:58.496Z,2016
2022-08-31T11:25:12.220Z,2060
2022-08-31T11:25:52.699Z,2068
2022-08-31T11:26:33.260Z,2072
2022-08-31T11:27:13.853Z,2068
2022-08-31T11:27:57.094Z,2060
2022-08-31T11:30:20.501Z,2036
2022-08-31T11:34:15.402Z,2000
2022-08-31T11:37:19.979Z,2020
2022-08-31T11:40:54.303Z,2064
2022-08-31T11:44:09.428Z,2036
2022-08-31T11:44:49.226Z,2032
2022-08-31T11:45:29.988Z,2016
2022-08-31T11:46:10.711Z,2008
2022-08-31T11:46:50.989Z,1988
2022-08-31T11:47:31.490Z,1972
2022-08-31T11:48:12.047Z,1956
2022-08-31T11:49:33.225Z,1924
2022-08-31T11:50:13.716Z,1904
2022-08-31T12:32:23.391Z,1400
2022-08-31T12:33:03.968Z,1396
2022-08-31T12:33:44.598Z,1396
2022-08-31T12:34:25.132Z,1380
2022-08-31T12:35:05.689Z,1384
2022-08-31T12:35:46.269Z,1360
2022-08-31T12:36:27.190Z,1356
2022-08-31T12:37:07.666Z,1368
2022-08-31T12:37:48.165Z,1360
2022-08-31T12:44:33.726Z,1444
2022-08-31T12:45:14.400Z,1380
2022-08-31T12:45:55.110Z,1304
2022-08-31T12:46:36.114Z,1256
2022-08-31T12:47:16.932Z,1224
2022-08-31T12:47:57.098Z,1244
2022-08-31T12:48:37.630Z,1264
2022-08-31T12:49:18.326Z,1264
2022-08-31T12:54:43.206Z,1720
2022-08-31T12:56:04.304Z,1704
2022-08-31T12:56:44.845Z,1672
2022-08-31T12:57:25.811Z,1728
2022-08-31T12:58:05.840Z,1736
2022-08-31T12:58:46.533Z,1696
2022-08-31T12:59:40.956Z,1636
2022-08-31T13:00:07.638Z,1536
2022-08-31T13:02:21.297Z,1428
2022-08-31T13:03:02.430Z,1404
2022-08-31T13:03:42.932Z,1356
2022-08-31T13:04:23.499Z,1348
2022-08-31T13:05:04.139Z,1320
2022-08-31T13:05:44.591Z,1292
2022-08-31T13:06:25.863Z,1340
2022-08-31T13:08:30.963Z,1360
2022-08-31T13:09:11.601Z,1344
2022-08-31T13:09:53.231Z,1400
2022-08-31T13:10:34.834Z,1396
2022-08-31T13:11:15.625Z,1452
2022-08-31T13:14:40.476Z,1420
2022-08-31T13:15:22.093Z,1480
2022-08-31T13:16:03.284Z,1428
2022-08-31T13:16:43.348Z,1552
2022-08-31T13:17:23.874Z,1436
2022-08-31T13:18:04.911Z,1476
2022-08-31T13:18:45.505Z,1392
2022-08-31T13:24:10.749Z,1260
2022-08-31T13:24:53.565Z,1240
2022-08-31T13:25:31.925Z,1264
2022-08-31T13:26:12.474Z,1272
2022-08-31T13:28:26.811Z,1580
2022-08-31T13:29:29.143Z,1644
2022-08-31T13:30:10.669Z,1644
2022-08-31T13:36:18.653Z,1220
2022-08-31T13:37:00.328Z,1172
2022-08-31T13:37:40.989Z,1124
2022-08-31T13:41:18.849Z,1112
2022-08-31T13:41:59.173Z,1108
2022-08-31T13:42:39.668Z,1100
2022-08-31T13:43:20.342Z,1092
2022-08-31T13:49:42.026Z,1080
2022-08-31T13:50:22.869Z,1080
2022-08-31T13:51:03.317Z,1076
2022-08-31T13:51:43.911Z,1072
2022-08-31T13:52:26.560Z,1072
2022-08-31T13:57:51.759Z,1096
2022-08-31T13:58:32.320Z,1104
2022-08-31T13:59:12.826Z,1108
2022-08-31T13:59:53.367Z,1108
2022-08-31T14:00:33.892Z,1108
2022-08-31T14:01:14.590Z,1112
2022-08-31T14:01:55.046Z,1120
2022-08-31T14:02:36.198Z,1132
2022-08-31T14:03:19.596Z,1156
2022-08-31T14:06:15.493Z,1260
2022-08-31T14:06:56.406Z,1284
2022-08-31T14:07:37.092Z,1296
2022-08-31T14:08:17.546Z,1312
2022-08-31T14:08:58.078Z,1324
2022-08-31T14:09:38.647Z,1340
2022-08-31T14:10:19.056Z,1356
2022-08-31T14:10:59.521Z,1368
2022-08-31T14:11:40.032Z,1384
2022-08-31T14:12:20.537Z,1392
2022-08-31T14:19:05.530Z,1480
2022-08-31T14:19:46.071Z,1512
2022-08-31T14:20:26.550Z,1480
2022-08-31T14:21:23.627Z,1468
2022-08-31T14:21:47.659Z,1476
2022-08-31T14:22:28.057Z,1492
2022-08-31T14:23:08.540Z,1504
2022-08-31T14:23:49.063Z,1548
2022-08-31T14:24:29.573Z,1556
2022-08-31T14:25:10.046Z,1512
2022-08-31T14:25:50.642Z,1512
2022-08-31T14:31:55.301Z,1460
2022-08-31T14:32:35.861Z,1504
2022-08-31T14:33:16.345Z,1444
2022-08-31T14:33:56.887Z,1464
2022-08-31T14:34:37.368Z,1500
2022-08-31T14:35:17.855Z,1516
2022-08-31T14:35:58.363Z,1528
2022-08-31T14:36:38.964Z,1500
2022-08-31T14:37:19.482Z,1484
2022-08-31T14:38:00.072Z,1612
2022-08-31T14:38:40.501Z,1604
2022-08-31T14:45:25.709Z,1648
2022-08-31T14:46:06.228Z,1636
2022-08-31T14:46:46.739Z,1620
2022-08-31T14:48:07.756Z,1540
2022-08-31T14:48:48.242Z,1508
2022-08-31T14:49:31.649Z,1492
2022-08-31T14:50:49.741Z,1464
2022-08-31T14:51:30.272Z,1468
2022-08-31T14:58:15.640Z,1328
2022-08-31T14:58:56.096Z,1312
2022-08-31T15:02:10.319Z,1316
2022-08-31T15:08:08.020Z,1336
2022-08-31T15:08:48.627Z,1336
2022-08-31T15:09:29.083Z,1316
2022-08-31T15:10:09.563Z,1264
2022-08-31T15:10:50.051Z,1272
2022-08-31T15:11:30.574Z,1248
2022-08-31T15:12:11.066Z,1232
2022-08-31T15:12:51.578Z,1216
2022-08-31T15:13:32.077Z,1200
2022-08-31T15:20:57.845Z,992
2022-08-31T15:21:44.477Z,1016
2022-08-31T15:22:18.888Z,1072
2022-08-31T15:22:59.391Z,1088
2022-08-31T15:23:39.891Z,1096
2022-08-31T15:24:20.471Z,1092
2022-08-31T15:25:00.983Z,1080
2022-08-31T15:25:41.757Z,1084
2022-08-31T15:26:22.317Z,1076
2022-08-31T15:33:07.453Z,1056
2022-08-31T15:33:47.935Z,1064
2022-08-31T15:34:28.511Z,1064
2022-08-31T15:35:09.422Z,1060
2022-08-31T15:35:49.898Z,1040
2022-08-31T15:36:30.404Z,1020
2022-08-31T15:37:51.710Z,980
2022-08-31T15:38:32.164Z,964
2022-08-31T15:39:12.716Z,948
2022-08-31T15:42:37.893Z,932
2022-08-31T15:43:18.392Z,928
2022-08-31T15:43:58.967Z,924
2022-08-31T15:44:39.468Z,924
2022-08-31T15:45:20.008Z,924
2022-08-31T15:46:01.493Z,920
2022-08-31T15:46:41.979Z,916
2022-08-31T15:47:22.475Z,916
2022-08-31T15:54:47.930Z,896
2022-08-31T15:55:28.448Z,892
2022-08-31T15:56:11.427Z,888
2022-08-31T16:03:37.878Z,852
2022-08-31T16:04:18.265Z,844
2022-08-31T16:04:58.885Z,840
2022-08-31T16:05:39.765Z,836
2022-08-31T16:06:19.840Z,832
2022-08-31T16:07:00.349Z,824
2022-08-31T16:07:40.854Z,820
2022-08-31T16:08:21.669Z,816
2022-08-31T16:09:02.061Z,812
2022-08-31T16:09:42.534Z,804
2022-08-31T16:15:48.679Z,744
2022-08-31T16:16:30.928Z,736
2022-08-31T16:17:09.669Z,696
2022-08-31T16:17:50.197Z,732
2022-08-31T16:18:30.684Z,744
2022-08-31T16:19:19.437Z,736
2022-08-31T16:19:51.684Z,732
2022-08-31T16:20:32.207Z,732
2022-08-31T16:27:17.425Z,700
2022-08-31T16:27:57.971Z,696
2022-08-31T16:28:38.430Z,692
2022-08-31T16:29:18.935Z,692
2022-08-31T16:29:59.443Z,688
2022-08-31T16:30:40.015Z,680
2022-08-31T16:31:20.556Z,676
2022-08-31T16:32:01.050Z,672
2022-08-31T16:32:41.526Z,672
2022-08-31T16:33:22.002Z,668
2022-08-31T16:40:23.789Z,628
2022-08-31T16:41:05.097Z,620
2022-08-31T16:41:45.703Z,612
2022-08-31T16:42:26.253Z,612
2022-08-31T16:43:06.745Z,612
2022-08-31T16:43:58.329Z,608
2022-08-31T16:44:36.413Z,608
2022-08-31T16:45:08.188Z,600
2022-08-31T16:45:48.782Z,592
2022-08-31T16:54:07.502Z,556
2022-08-31T16:54:48.002Z,552
2022-08-31T16:55:28.528Z,548
2022-08-31T16:56:09.007Z,540
2022-08-31T16:56:50.441Z,532
2022-08-31T16:57:30.913Z,532
2022-08-31T16:58:11.410Z,524
2022-08-31T16:58:52.828Z,520
2022-08-31T16:59:32.350Z,512
2022-08-31T17:06:17.676Z,476
2022-08-31T17:06:58.145Z,476
2022-08-31T17:07:38.728Z,472
2022-08-31T17:08:19.383Z,468
2022-08-31T17:08:59.680Z,468
2022-08-31T17:09:40.210Z,460
2022-08-31T17:10:20.697Z,452
2022-08-31T17:11:01.274Z,448
2022-08-31T17:11:41.803Z,448
2022-08-31T17:12:22.310Z,440
2022-08-31T17:15:47.457Z,412
2022-08-31T17:16:28.247Z,404
2022-08-31T17:17:50.417Z,392
2022-08-31T17:18:32.399Z,392
2022-08-31T17:23:33.361Z,364
2022-08-31T17:24:13.888Z,360
2022-08-31T17:24:54.326Z,352
2022-08-31T17:25:34.769Z,348
2022-08-31T17:26:15.340Z,344
2022-08-31T17:26:55.815Z,340
2022-08-31T17:27:36.274Z,340
2022-08-31T17:28:16.783Z,332
2022-08-31T17:28:57.576Z,328
2022-08-31T17:29:43.516Z,316
2022-08-31T17:36:23.210Z,236
2022-08-31T17:37:03.681Z,224
2022-08-31T17:37:44.293Z,216
2022-08-31T17:38:24.606Z,204
2022-08-31T17:39:05.088Z,196
2022-08-31T17:39:45.587Z,188
2022-08-31T17:40:26.198Z,180
2022-08-31T17:41:06.793Z,176
2022-08-31T17:41:47.175Z,168
2022-08-31T17:42:27.644Z,160
2022-08-31T17:43:08.178Z,156
2022-08-31T17:50:34.060Z,124
2022-08-31T17:51:14.643Z,120
2022-08-31T17:51:55.096Z,116
2022-08-31T17:52:35.571Z,112
2022-08-31T17:53:16.051Z,108
2022-08-31T17:53:56.510Z,108
2022-08-31T17:54:36.979Z,104
2022-08-31T18:34:20.449Z,0
2022-08-31T18:35:00.900Z,4
2022-08-31T18:35:41.387Z,4
2022-08-31T18:36:21.861Z,4
2022-08-31T18:37:02.455Z,0
2022-08-31T18:37:42.944Z,0
2022-08-31T18:38:23.515Z,0
2022-08-31T18:39:03.923Z,0
2022-08-31T18:39:52.379Z,0
2022-08-31T18:40:24.992Z,0
2022-08-31T18:46:30.503Z,0
2022-08-31T18:47:10.995Z,0
2022-08-31T18:48:07.445Z,0
2022-08-31T18:49:15.310Z,0
2022-08-31T18:55:20.244Z,0
2022-08-31T18:56:01.656Z,0
2022-08-31T18:56:42.160Z,0
2022-08-31T18:57:22.641Z,0
2022-08-31T18:58:03.159Z,0
2022-08-31T18:58:43.660Z,0
2022-08-31T18:59:24.161Z,0
2022-08-31T19:00:04.639Z,0
2022-08-31T19:00:45.742Z,0
2022-08-31T19:06:10.361Z,0
2022-08-31T19:06:51.185Z,0
2022-08-31T19:07:31.639Z,0
2022-08-31T19:08:12.151Z,0
2022-08-31T19:09:36.247Z,0
2022-08-31T19:15:00.389Z,0
2022-08-31T19:15:40.830Z,0
2022-08-31T19:16:21.347Z,0
2022-08-31T19:17:03.780Z,0
2022-08-31T19:17:42.330Z,0
2022-08-31T19:18:22.850Z,0
2022-08-31T19:19:03.356Z,0
2022-08-31T19:19:43.835Z,0
2022-08-31T19:20:24.306Z,0
2022-08-31T19:21:04.779Z,0
2022-08-31T19:28:30.368Z,0
2022-08-31T19:29:10.869Z,0
2022-08-31T19:32:24.534Z,0
2022-08-31T19:33:05.034Z,0
2022-08-31T19:33:45.574Z,0
2022-08-31T19:34:26.035Z,0
2022-08-31T19:35:06.561Z,0
2022-08-31T19:35:47.010Z,0
2022-08-31T19:36:27.708Z,0
2022-08-31T19:37:07.997Z,0
2022-08-31T19:37:48.505Z,0
2022-08-31T19:38:29.037Z,0
2022-08-31T19:45:54.437Z,0
2022-08-31T19:46:34.999Z,0
2022-08-31T19:47:30.935Z,0
2022-08-31T19:48:01.131Z,0
2022-08-31T19:48:43.822Z,0
2022-08-31T19:49:16.928Z,0
2022-08-31T19:49:57.378Z,0
2022-08-31T19:50:41.346Z,0
2022-08-31T19:51:18.344Z,0
2022-08-31T19:51:58.826Z,0
2022-08-31T19:52:39.324Z,0
2022-08-31T19:56:44.335Z,0
2022-08-31T19:57:24.841Z,0
2022-08-31T19:58:05.336Z,0
2022-08-31T19:58:45.811Z,0
2022-08-31T19:59:26.302Z,0
2022-08-31T20:00:06.873Z,0
2022-08-31T20:00:48.456Z,0
2022-08-31T20:01:28.147Z,0
2022-08-31T20:02:08.516Z,0
2022-08-31T20:02:49.030Z,0
2022-08-31T20:03:29.386Z,0
2022-08-31T20:06:29.676Z,0
2022-08-31T20:07:09.773Z,0
2022-08-31T20:07:50.254Z,0
2022-08-31T20:08:30.755Z,0
2022-08-31T20:09:11.288Z,0
2022-08-31T20:09:51.736Z,0
2022-08-31T20:10:32.231Z,0
2022-08-31T20:11:12.705Z,0
2022-08-31T20:11:53.193Z,0
2022-08-31T20:12:33.669Z,0
2022-08-31T20:13:14.159Z,0
2022-08-31T20:19:59.198Z,0
2022-08-31T20:20:39.720Z,0
2022-08-31T20:21:20.241Z,0
2022-08-31T20:22:00.768Z,0
2022-08-31T20:22:41.185Z,0
2022-08-31T20:23:21.745Z,0
2022-08-31T20:24:02.186Z,0
2022-08-31T20:25:23.234Z,0
2022-08-31T20:26:03.662Z,0
2022-08-31T20:26:47.628Z,0
2022-08-31T20:33:29.144Z,0
2022-08-31T20:34:09.623Z,0
2022-08-31T20:34:50.119Z,0
2022-08-31T20:35:30.594Z,0
2022-08-31T20:36:11.076Z,0
2022-08-31T20:36:51.605Z,0
2022-08-31T20:37:32.107Z,0
2022-08-31T20:38:12.616Z,0
2022-08-31T20:38:53.168Z,0
2022-08-31T20:39:33.611Z,0
2022-08-31T20:40:14.148Z,0
2022-08-31T20:46:59.207Z,0